FDX1441 KIND-KHTS
Flight info
| Callsign | FDX1441 |
|---|---|
| Flight time | 0h 41m |
| Altitude | 21000 |
| Route | DAWNN1 DAWNN |
| Aircraft | MD11/H-VGDW/C |
Departure
| Time | 2026-05-05 20:45 |
|---|---|
| Airport | Indianapolis International Airport (KIND) |
Arrival
| Time | 2026-05-05 21:27 |
|---|---|
| Airport | Tri-State Airport / Milton J. Ferguson Field (KHTS) |
| Time | Latitude | Longitude | Altitude | Speed | Heading |
|---|---|---|---|---|---|
| 2026-05-05 20:27 | 39.71210 | -86.28592 | 790 ft | 0 kts | 314° |
| 2026-05-05 20:37 | 39.71197 | -86.28575 | 790 ft | 4 kts | 313° |
| 2026-05-05 20:37 | 39.71178 | -86.28546 | 789 ft | 4 kts | 280° |
| 2026-05-05 20:38 | 39.71184 | -86.28510 | 789 ft | 4 kts | 221° |
| 2026-05-05 20:38 | 39.71185 | -86.28509 | 789 ft | 0 kts | 221° |
| 2026-05-05 20:40 | 39.71176 | -86.28518 | 790 ft | 6 kts | 221° |
| 2026-05-05 20:40 | 39.71133 | -86.28591 | 789 ft | 10 kts | 257° |
| 2026-05-05 20:40 | 39.71154 | -86.28639 | 790 ft | 9 kts | 311° |
| 2026-05-05 20:41 | 39.71202 | -86.28709 | 791 ft | 4 kts | 299° |
| 2026-05-05 20:41 | 39.71197 | -86.28742 | 791 ft | 4 kts | 243° |
| 2026-05-05 20:41 | 39.71156 | -86.28801 | 791 ft | 14 kts | 227° |
| 2026-05-05 20:41 | 39.71066 | -86.28918 | 791 ft | 23 kts | 224° |
| 2026-05-05 20:42 | 39.70932 | -86.29089 | 791 ft | 32 kts | 225° |
| 2026-05-05 20:42 | 39.70755 | -86.29314 | 791 ft | 38 kts | 224° |
| 2026-05-05 20:42 | 39.70529 | -86.29519 | 790 ft | 42 kts | 209° |
| 2026-05-05 20:42 | 39.70308 | -86.29784 | 791 ft | 45 kts | 225° |
| 2026-05-05 20:43 | 39.70084 | -86.30071 | 790 ft | 41 kts | 224° |
| 2026-05-05 20:43 | 39.69952 | -86.30239 | 790 ft | 14 kts | 229° |
| 2026-05-05 20:43 | 39.69952 | -86.30323 | 791 ft | 5 kts | 308° |
| 2026-05-05 20:43 | 39.69954 | -86.30325 | 791 ft | 0 kts | 309° |
| 2026-05-05 20:44 | 39.69955 | -86.30328 | 791 ft | 3 kts | 309° |
| 2026-05-05 20:44 | 39.69991 | -86.30379 | 794 ft | 12 kts | 313° |
| 2026-05-05 20:44 | 39.70023 | -86.30413 | 795 ft | 3 kts | 342° |
| 2026-05-05 20:45 | 39.70558 | -86.29758 | 795 ft | 127 kts | 44° |
| 2026-05-05 20:45 | 39.71349 | -86.28747 | 825 ft | 185 kts | 41° |
| 2026-05-05 20:45 | 39.72266 | -86.27544 | 1545 ft | 195 kts | 44° |
| 2026-05-05 20:46 | 39.72933 | -86.26679 | 1929 ft | 213 kts | 44° |
| 2026-05-05 20:46 | 39.74016 | -86.25265 | 2627 ft | 226 kts | 45° |
| 2026-05-05 20:46 | 39.75175 | -86.23752 | 3247 ft | 249 kts | 44° |
| 2026-05-05 20:46 | 39.76428 | -86.22015 | 3524 ft | 271 kts | 49° |
| 2026-05-05 20:47 | 39.77673 | -86.20151 | 4227 ft | 277 kts | 50° |
| 2026-05-05 20:47 | 39.78781 | -86.18082 | 4799 ft | 279 kts | 69° |
| 2026-05-05 20:47 | 39.79173 | -86.15615 | 5345 ft | 281 kts | 95° |
| 2026-05-05 20:47 | 39.78729 | -86.13210 | 5869 ft | 277 kts | 121° |
| 2026-05-05 20:48 | 39.77543 | -86.11311 | 6411 ft | 267 kts | 148° |
| 2026-05-05 20:48 | 39.75891 | -86.10331 | 6953 ft | 258 kts | 174° |
| 2026-05-05 20:48 | 39.74140 | -86.10451 | 7505 ft | 250 kts | 200° |
| 2026-05-05 20:48 | 39.72542 | -86.11333 | 8260 ft | 250 kts | 206° |
| 2026-05-05 20:49 | 39.70930 | -86.12222 | 9198 ft | 253 kts | 205° |
| 2026-05-05 20:49 | 39.69322 | -86.13088 | 10123 ft | 255 kts | 206° |
| 2026-05-05 20:49 | 39.67592 | -86.14026 | 10367 ft | 284 kts | 206° |
| 2026-05-05 20:49 | 39.65672 | -86.15077 | 10503 ft | 314 kts | 206° |
| 2026-05-05 20:50 | 39.63593 | -86.16215 | 10996 ft | 329 kts | 205° |
| 2026-05-05 20:50 | 39.61474 | -86.17370 | 11808 ft | 334 kts | 205° |
| 2026-05-05 20:50 | 39.59310 | -86.18553 | 12630 ft | 340 kts | 205° |
| 2026-05-05 20:50 | 39.57114 | -86.19758 | 13431 ft | 345 kts | 205° |
| 2026-05-05 20:51 | 39.54889 | -86.20984 | 14189 ft | 349 kts | 205° |
| 2026-05-05 20:51 | 39.52664 | -86.22209 | 14892 ft | 353 kts | 204° |
| 2026-05-05 20:51 | 39.50247 | -86.23012 | 15455 ft | 366 kts | 191° |
| 2026-05-05 20:51 | 39.47662 | -86.23249 | 15984 ft | 376 kts | 186° |
| 2026-05-05 20:52 | 39.45017 | -86.23344 | 16610 ft | 382 kts | 186° |
| 2026-05-05 20:52 | 39.42350 | -86.23470 | 17219 ft | 386 kts | 187° |
| 2026-05-05 20:52 | 39.39649 | -86.23669 | 17816 ft | 390 kts | 188° |
| 2026-05-05 20:52 | 39.36930 | -86.23931 | 18370 ft | 394 kts | 189° |
| 2026-05-05 20:53 | 39.34188 | -86.24236 | 18910 ft | 397 kts | 190° |
| 2026-05-05 20:53 | 39.31461 | -86.24562 | 19436 ft | 400 kts | 191° |
| 2026-05-05 20:53 | 39.28678 | -86.24842 | 19908 ft | 406 kts | 185° |
| 2026-05-05 20:53 | 39.25831 | -86.24320 | 20424 ft | 423 kts | 168° |
| 2026-05-05 20:54 | 39.23109 | -86.22724 | 20926 ft | 440 kts | 152° |
| 2026-05-05 20:54 | 39.20729 | -86.20139 | 21395 ft | 456 kts | 136° |
| 2026-05-05 20:54 | 39.18897 | -86.16736 | 21879 ft | 469 kts | 120° |
| 2026-05-05 20:54 | 39.17762 | -86.12741 | 22379 ft | 481 kts | 104° |
| 2026-05-05 20:55 | 39.17156 | -86.08503 | 22674 ft | 488 kts | 103° |
| 2026-05-05 20:55 | 39.16352 | -86.04250 | 23192 ft | 490 kts | 107° |
| 2026-05-05 20:55 | 39.15418 | -86.00006 | 23608 ft | 495 kts | 108° |
| 2026-05-05 20:55 | 39.14439 | -85.95723 | 23948 ft | 498 kts | 108° |
| 2026-05-05 20:56 | 39.13467 | -85.91424 | 24293 ft | 502 kts | 108° |
| 2026-05-05 20:56 | 39.12508 | -85.87075 | 24637 ft | 506 kts | 107° |
| 2026-05-05 20:56 | 39.11560 | -85.82683 | 24793 ft | 510 kts | 107° |
| 2026-05-05 20:56 | 39.10639 | -85.78359 | 24829 ft | 502 kts | 107° |
| 2026-05-05 20:57 | 39.09724 | -85.74034 | 24838 ft | 499 kts | 107° |
| 2026-05-05 20:57 | 39.08809 | -85.69721 | 24841 ft | 499 kts | 107° |
| 2026-05-05 20:57 | 39.07893 | -85.65414 | 24841 ft | 499 kts | 107° |
| 2026-05-05 20:57 | 39.06993 | -85.61187 | 24842 ft | 479 kts | 107° |
| 2026-05-05 20:58 | 39.06131 | -85.57154 | 24848 ft | 459 kts | 107° |
| 2026-05-05 20:58 | 39.05277 | -85.53191 | 24859 ft | 468 kts | 107° |
| 2026-05-05 20:58 | 39.04386 | -85.49071 | 24861 ft | 482 kts | 107° |
| 2026-05-05 20:58 | 39.03475 | -85.44855 | 24866 ft | 495 kts | 107° |
| 2026-05-05 20:59 | 39.02549 | -85.40552 | 24856 ft | 505 kts | 107° |
| 2026-05-05 20:59 | 39.01598 | -85.36132 | 24867 ft | 520 kts | 107° |
| 2026-05-05 20:59 | 39.00630 | -85.31630 | 24872 ft | 524 kts | 107° |
| 2026-05-05 20:59 | 38.99657 | -85.27109 | 24855 ft | 525 kts | 107° |
| 2026-05-05 21:00 | 38.98692 | -85.22643 | 24857 ft | 525 kts | 107° |
| 2026-05-05 21:00 | 38.97711 | -85.18122 | 24860 ft | 525 kts | 107° |
| 2026-05-05 21:00 | 38.96724 | -85.13595 | 24860 ft | 525 kts | 107° |
| 2026-05-05 21:00 | 38.95730 | -85.09064 | 24862 ft | 525 kts | 107° |
| 2026-05-05 21:01 | 38.94722 | -85.04539 | 24863 ft | 525 kts | 107° |
| 2026-05-05 21:01 | 38.93714 | -85.00026 | 24860 ft | 527 kts | 107° |
| 2026-05-05 21:01 | 38.92717 | -84.95551 | 24866 ft | 527 kts | 107° |
| 2026-05-05 21:01 | 38.91713 | -84.91023 | 24865 ft | 528 kts | 107° |
| 2026-05-05 21:02 | 38.90710 | -84.86489 | 24866 ft | 528 kts | 107° |
| 2026-05-05 21:02 | 38.89707 | -84.81955 | 24866 ft | 528 kts | 107° |
| 2026-05-05 21:02 | 38.88702 | -84.77419 | 24868 ft | 528 kts | 107° |
| 2026-05-05 21:02 | 38.87706 | -84.72927 | 24785 ft | 511 kts | 107° |
| 2026-05-05 21:03 | 38.86747 | -84.68606 | 24247 ft | 499 kts | 107° |
| 2026-05-05 21:03 | 38.85795 | -84.64339 | 23410 ft | 496 kts | 107° |
| 2026-05-05 21:03 | 38.84846 | -84.60103 | 22434 ft | 490 kts | 107° |
| 2026-05-05 21:03 | 38.83918 | -84.55958 | 21307 ft | 489 kts | 107° |
| 2026-05-05 21:04 | 38.82979 | -84.51769 | 20173 ft | 488 kts | 107° |
| 2026-05-05 21:04 | 38.82042 | -84.47592 | 19163 ft | 486 kts | 107° |
| 2026-05-05 21:04 | 38.81114 | -84.43456 | 18361 ft | 478 kts | 107° |
| 2026-05-05 21:04 | 38.80201 | -84.39393 | 17522 ft | 470 kts | 108° |
| 2026-05-05 21:05 | 38.79299 | -84.35388 | 16694 ft | 463 kts | 108° |
| 2026-05-05 21:05 | 38.78414 | -84.31467 | 15874 ft | 456 kts | 108° |
| 2026-05-05 21:05 | 38.77540 | -84.27598 | 15018 ft | 448 kts | 110° |
| 2026-05-05 21:05 | 38.76678 | -84.23794 | 14266 ft | 440 kts | 110° |
| 2026-05-05 21:06 | 38.75837 | -84.20101 | 13925 ft | 437 kts | 111° |
| 2026-05-05 21:06 | 38.74988 | -84.16380 | 13569 ft | 433 kts | 111° |
| 2026-05-05 21:06 | 38.74148 | -84.12701 | 13181 ft | 429 kts | 111° |
| 2026-05-05 21:06 | 38.73309 | -84.09045 | 13010 ft | 426 kts | 111° |
| 2026-05-05 21:07 | 38.72464 | -84.05405 | 12979 ft | 425 kts | 111° |
| 2026-05-05 21:07 | 38.71612 | -84.01773 | 12976 ft | 425 kts | 111° |
| 2026-05-05 21:07 | 38.70764 | -83.98146 | 12975 ft | 425 kts | 111° |
| 2026-05-05 21:07 | 38.69918 | -83.94509 | 12976 ft | 425 kts | 111° |
| 2026-05-05 21:08 | 38.69087 | -83.90914 | 12959 ft | 411 kts | 111° |
| 2026-05-05 21:08 | 38.68304 | -83.87504 | 12976 ft | 390 kts | 111° |
| 2026-05-05 21:08 | 38.67537 | -83.84192 | 12977 ft | 386 kts | 111° |
| 2026-05-05 21:08 | 38.66780 | -83.80951 | 12990 ft | 385 kts | 111° |
| 2026-05-05 21:09 | 38.66012 | -83.77672 | 13002 ft | 385 kts | 111° |
| 2026-05-05 21:09 | 38.65244 | -83.74388 | 13013 ft | 385 kts | 111° |
| 2026-05-05 21:09 | 38.64478 | -83.71104 | 13000 ft | 385 kts | 111° |
| 2026-05-05 21:09 | 38.63711 | -83.67817 | 13000 ft | 385 kts | 111° |
| 2026-05-05 21:10 | 38.62953 | -83.64560 | 12928 ft | 375 kts | 111° |
| 2026-05-05 21:10 | 38.62214 | -83.61378 | 12306 ft | 372 kts | 111° |
| 2026-05-05 21:10 | 38.61474 | -83.58218 | 11731 ft | 368 kts | 111° |
| 2026-05-05 21:10 | 38.60750 | -83.55134 | 11255 ft | 361 kts | 111° |
| 2026-05-05 21:11 | 38.60044 | -83.52125 | 11111 ft | 345 kts | 111° |
| 2026-05-05 21:11 | 38.59372 | -83.49254 | 10981 ft | 330 kts | 112° |
| 2026-05-05 21:11 | 38.58723 | -83.46498 | 10828 ft | 317 kts | 112° |
| 2026-05-05 21:11 | 38.58086 | -83.43810 | 10440 ft | 314 kts | 111° |
| 2026-05-05 21:12 | 38.57452 | -83.41151 | 9994 ft | 312 kts | 112° |
| 2026-05-05 21:12 | 38.56820 | -83.38498 | 9492 ft | 311 kts | 111° |
| 2026-05-05 21:12 | 38.56196 | -83.35868 | 9021 ft | 308 kts | 111° |
| 2026-05-05 21:12 | 38.55580 | -83.33264 | 8591 ft | 304 kts | 111° |
| 2026-05-05 21:13 | 38.54968 | -83.30684 | 8221 ft | 301 kts | 111° |
| 2026-05-05 21:13 | 38.54372 | -83.28171 | 7869 ft | 298 kts | 111° |
| 2026-05-05 21:13 | 38.53775 | -83.25655 | 7521 ft | 294 kts | 111° |
| 2026-05-05 21:13 | 38.53184 | -83.23166 | 7175 ft | 290 kts | 111° |
| 2026-05-05 21:14 | 38.52601 | -83.20716 | 7041 ft | 288 kts | 111° |
| 2026-05-05 21:14 | 38.52015 | -83.18258 | 7017 ft | 289 kts | 111° |
| 2026-05-05 21:14 | 38.51430 | -83.15806 | 7011 ft | 289 kts | 111° |
| 2026-05-05 21:14 | 38.50846 | -83.13352 | 7013 ft | 288 kts | 112° |
| 2026-05-05 21:15 | 38.50240 | -83.10915 | 7007 ft | 287 kts | 116° |
| 2026-05-05 21:15 | 38.49439 | -83.08598 | 7014 ft | 284 kts | 121° |
| 2026-05-05 21:15 | 38.48581 | -83.06384 | 6904 ft | 279 kts | 122° |
| 2026-05-05 21:15 | 38.47719 | -83.04185 | 6639 ft | 275 kts | 122° |
| 2026-05-05 21:16 | 38.46865 | -83.02004 | 6295 ft | 273 kts | 122° |
| 2026-05-05 21:16 | 38.46006 | -82.99857 | 5909 ft | 269 kts | 126° |
| 2026-05-05 21:16 | 38.44973 | -82.97887 | 5541 ft | 265 kts | 131° |
| 2026-05-05 21:16 | 38.43870 | -82.96012 | 5168 ft | 263 kts | 132° |
| 2026-05-05 21:17 | 38.42761 | -82.94164 | 4761 ft | 261 kts | 132° |
| 2026-05-05 21:17 | 38.41682 | -82.92375 | 4618 ft | 244 kts | 132° |
| 2026-05-05 21:17 | 38.40709 | -82.90743 | 4423 ft | 225 kts | 132° |
| 2026-05-05 21:17 | 38.39777 | -82.89169 | 4087 ft | 220 kts | 132° |
| 2026-05-05 21:18 | 38.38844 | -82.87599 | 4023 ft | 222 kts | 132° |
| 2026-05-05 21:18 | 38.37907 | -82.86026 | 4025 ft | 223 kts | 132° |
| 2026-05-05 21:18 | 38.36970 | -82.84453 | 4009 ft | 222 kts | 132° |
| 2026-05-05 21:18 | 38.36036 | -82.82876 | 4008 ft | 222 kts | 133° |
| 2026-05-05 21:19 | 38.35200 | -82.81234 | 4012 ft | 227 kts | 122° |
| 2026-05-05 21:19 | 38.34589 | -82.79384 | 3853 ft | 226 kts | 117° |
| 2026-05-05 21:19 | 38.34005 | -82.77524 | 3448 ft | 226 kts | 118° |
| 2026-05-05 21:19 | 38.33371 | -82.75692 | 3115 ft | 222 kts | 119° |
| 2026-05-05 21:20 | 38.32771 | -82.73991 | 3003 ft | 199 kts | 119° |
| 2026-05-05 21:20 | 38.32223 | -82.72397 | 2994 ft | 197 kts | 119° |
| 2026-05-05 21:20 | 38.31680 | -82.70810 | 3018 ft | 195 kts | 119° |
| 2026-05-05 21:20 | 38.31132 | -82.69226 | 3004 ft | 195 kts | 119° |
| 2026-05-05 21:21 | 38.30587 | -82.67646 | 2993 ft | 195 kts | 119° |
| 2026-05-05 21:21 | 38.30041 | -82.66067 | 3022 ft | 195 kts | 119° |
| 2026-05-05 21:21 | 38.29551 | -82.64450 | 3024 ft | 197 kts | 113° |
| 2026-05-05 21:21 | 38.29147 | -82.62781 | 2984 ft | 197 kts | 112° |
| 2026-05-05 21:22 | 38.28756 | -82.61129 | 2998 ft | 199 kts | 113° |
| 2026-05-05 21:22 | 38.28369 | -82.59410 | 3010 ft | 202 kts | 112° |
| 2026-05-05 21:22 | 38.27997 | -82.57694 | 2989 ft | 201 kts | 112° |
| 2026-05-05 21:22 | 38.27626 | -82.55986 | 3030 ft | 199 kts | 112° |
| 2026-05-05 21:23 | 38.27246 | -82.54296 | 2998 ft | 198 kts | 112° |
| 2026-05-05 21:23 | 38.26869 | -82.52618 | 2861 ft | 197 kts | 109° |
| 2026-05-05 21:23 | 38.26929 | -82.50851 | 2725 ft | 206 kts | 75° |
| 2026-05-05 21:23 | 38.27727 | -82.49343 | 2581 ft | 213 kts | 43° |
| 2026-05-05 21:24 | 38.28829 | -82.48043 | 2501 ft | 216 kts | 43° |
| 2026-05-05 21:24 | 38.29992 | -82.46868 | 2385 ft | 212 kts | 24° |
| 2026-05-05 21:24 | 38.31390 | -82.46548 | 2197 ft | 204 kts | 346° |
| 2026-05-05 21:24 | 38.32786 | -82.46893 | 2147 ft | 203 kts | 343° |
| 2026-05-05 21:25 | 38.34120 | -82.47296 | 2083 ft | 192 kts | 335° |
| 2026-05-05 21:25 | 38.35118 | -82.48269 | 1890 ft | 172 kts | 291° |
| 2026-05-05 21:25 | 38.35410 | -82.49644 | 1723 ft | 159 kts | 274° |
| 2026-05-05 21:25 | 38.35628 | -82.51018 | 1545 ft | 160 kts | 275° |
| 2026-05-05 21:26 | 38.35818 | -82.52380 | 1349 ft | 153 kts | 272° |
| 2026-05-05 21:26 | 38.36122 | -82.53759 | 1101 ft | 166 kts | 286° |
| 2026-05-05 21:26 | 38.36551 | -82.55085 | 879 ft | 152 kts | 286° |
| 2026-05-05 21:26 | 38.36888 | -82.56156 | 840 ft | 105 kts | 292° |
| 2026-05-05 21:27 | 38.37078 | -82.56733 | 842 ft | 40 kts | 293° |
| 2026-05-05 21:27 | 38.37142 | -82.56937 | 848 ft | 12 kts | 292° |
| 2026-05-05 21:27 | 38.37168 | -82.56977 | 844 ft | 4 kts | 341° |
| 2026-05-05 21:27 | 38.37204 | -82.56963 | 843 ft | 5 kts | 39° |
| 2026-05-05 21:28 | 38.37209 | -82.56910 | 841 ft | 7 kts | 111° |
| 2026-05-05 21:28 | 38.37155 | -82.56867 | 844 ft | 12 kts | 155° |
| 2026-05-05 21:28 | 38.37096 | -82.56789 | 845 ft | 15 kts | 116° |
| 2026-05-05 21:28 | 38.37042 | -82.56625 | 840 ft | 25 kts | 111° |
| 2026-05-05 21:29 | 38.36966 | -82.56390 | 840 ft | 33 kts | 112° |
| 2026-05-05 21:29 | 38.36868 | -82.56086 | 840 ft | 38 kts | 112° |
| 2026-05-05 21:29 | 38.36823 | -82.55931 | 840 ft | 2 kts | 83° |
| 2026-05-05 21:29 | 38.36829 | -82.55926 | 840 ft | 1 kts | 43° |
| 2026-05-05 21:30 | 38.36851 | -82.55924 | 842 ft | 7 kts | 1° |
| 2026-05-05 21:30 | 38.36905 | -82.55940 | 844 ft | 5 kts | 356° |
| 2026-05-05 21:30 | 38.36942 | -82.55928 | 843 ft | 5 kts | 21° |
| 2026-05-05 21:30 | 38.36966 | -82.55916 | 849 ft | 1 kts | 22° |
| 2026-05-05 21:31 | 38.36975 | -82.55911 | 848 ft | 2 kts | 22° |
| 2026-05-05 21:31 | 38.36978 | -82.55909 | 844 ft | 0 kts | 22° |